createdAt,value
2023-03-30T00:01:31.451Z,97698.41
2023-03-30T00:03:57.676Z,97681.56
2023-03-30T00:06:23.915Z,97682.63
2023-03-30T00:08:50.012Z,97691.44
2023-03-30T00:11:16.187Z,97682.63
2023-03-30T00:13:42.351Z,97682.63
2023-03-30T00:16:08.477Z,97691.44
2023-03-30T00:18:34.690Z,97694.09
2023-03-30T00:21:00.867Z,97681.81
2023-03-30T00:23:27.031Z,97670.91
2023-03-30T00:25:53.214Z,97678.09
2023-03-30T00:28:19.415Z,97678.09
2023-03-30T00:30:45.517Z,97653.03
2023-03-30T00:33:11.717Z,97653.03
2023-03-30T00:35:37.914Z,97663.72
2023-03-30T00:38:04.040Z,97664.75
2023-03-30T00:40:30.211Z,97671.72
2023-03-30T00:42:56.340Z,97658.38
2023-03-30T00:45:25.509Z,97652.22
2023-03-30T00:47:51.762Z,97660.22
2023-03-30T00:50:17.937Z,97657.34
2023-03-30T00:52:44.063Z,97655.72
2023-03-30T00:55:10.172Z,97641.56
2023-03-30T00:57:36.276Z,97633.56
2023-03-30T01:00:02.392Z,97621.88
2023-03-30T01:02:28.641Z,97617.53
2023-03-30T01:04:57.593Z,97630.06
2023-03-30T01:07:23.787Z,97624.75
2023-03-30T01:09:49.923Z,97618.34
2023-03-30T01:12:16.078Z,97623.69
2023-03-30T01:14:42.208Z,97622.88
2023-03-30T01:17:08.326Z,97607.69
2023-03-30T01:19:34.440Z,97604.00
2023-03-30T01:22:00.539Z,97589.84
2023-03-30T01:24:26.798Z,97583.66
2023-03-30T01:26:52.938Z,97581.00
2023-03-30T01:29:19.081Z,97580.19
2023-03-30T01:31:45.354Z,97571.16
2023-03-30T01:34:11.614Z,97571.16
2023-03-30T01:36:37.716Z,97591.69
2023-03-30T01:39:03.839Z,97576.50
2023-03-30T01:41:30.116Z,97565.00
2023-03-30T01:43:56.306Z,97565.00
2023-03-30T01:46:22.552Z,97587.19
2023-03-30T01:48:48.721Z,97569.53
2023-03-30T01:51:14.882Z,97572.19
2023-03-30T01:53:41.046Z,97567.66
2023-03-30T01:56:07.249Z,97570.34
2023-03-30T01:58:33.733Z,97573.00
2023-03-30T02:01:00.265Z,97570.34
2023-03-30T02:03:26.424Z,97575.66
2023-03-30T02:05:52.585Z,97576.50
2023-03-30T02:08:20.799Z,97591.69
2023-03-30T02:10:46.939Z,97585.31
2023-03-30T02:13:13.030Z,97586.34
2023-03-30T02:15:39.331Z,97568.72
2023-03-30T02:18:05.518Z,97588.00
2023-03-30T02:20:31.647Z,97590.88
2023-03-30T02:22:57.807Z,97593.31
2023-03-30T02:25:23.964Z,97587.19
2023-03-30T02:27:50.150Z,97588.00
2023-03-30T02:30:16.396Z,97578.34
2023-03-30T02:32:42.612Z,97585.31
2023-03-30T02:35:08.824Z,97575.66
2023-03-30T02:37:34.993Z,97563.97
2023-03-30T02:40:01.124Z,97559.44
2023-03-30T02:42:27.236Z,97562.13
2023-03-30T02:44:53.559Z,97551.66
2023-03-30T02:47:19.653Z,97554.31
2023-03-30T02:49:45.778Z,97540.78
2023-03-30T02:52:11.973Z,97532.97
2023-03-30T02:54:39.680Z,97535.44
2023-03-30T02:57:05.932Z,97537.28
2023-03-30T02:59:32.110Z,97526.63
2023-03-30T03:01:58.394Z,97515.94
2023-03-30T03:04:24.632Z,97516.75
2023-03-30T03:06:51.160Z,97503.41
2023-03-30T03:09:17.496Z,97502.63
2023-03-30T03:11:43.746Z,97491.94
2023-03-30T03:14:10.576Z,97497.28
2023-03-30T03:16:36.714Z,97498.91
2023-03-30T03:19:02.887Z,97491.72
2023-03-30T03:21:29.084Z,97494.59
2023-03-30T03:23:55.285Z,97497.28
2023-03-30T03:26:21.442Z,97494.59
2023-03-30T03:28:47.719Z,97505.28
2023-03-30T03:31:13.980Z,97496.22
2023-03-30T03:33:40.204Z,97487.41
2023-03-30T03:36:06.368Z,97488.22
2023-03-30T03:38:32.466Z,97493.56
2023-03-30T03:40:58.581Z,97490.88
2023-03-30T03:43:24.699Z,97493.81
2023-03-30T03:45:50.811Z,97497.06
2023-03-30T03:48:16.912Z,97487.19
2023-03-30T03:50:43.020Z,97496.22
2023-03-30T03:53:09.143Z,97499.72
2023-03-30T03:55:35.298Z,97502.63
2023-03-30T03:58:01.435Z,97497.88
2023-03-30T04:00:27.611Z,97490.88
2023-03-30T04:02:53.779Z,97498.91
2023-03-30T04:05:19.967Z,97486.41
2023-03-30T04:07:46.077Z,97498.91
2023-03-30T04:10:12.207Z,97488.22
2023-03-30T04:12:38.372Z,97472.22
2023-03-30T04:15:04.530Z,97470.38
2023-03-30T04:17:30.669Z,97473.88
2023-03-30T04:19:56.870Z,97475.72
2023-03-30T04:22:23.033Z,97487.19
2023-03-30T04:24:49.169Z,97479.19
2023-03-30T04:27:15.422Z,97477.56
2023-03-30T04:29:41.581Z,97479.19
2023-03-30T04:32:07.941Z,97470.38
2023-03-30T04:34:34.154Z,97452.53
2023-03-30T04:37:00.297Z,97457.84
2023-03-30T04:39:26.406Z,97456.00
2023-03-30T04:41:52.529Z,97449.84
2023-03-30T04:44:18.637Z,97445.31
2023-03-30T04:46:44.832Z,97437.31
2023-03-30T04:49:10.958Z,97441.84
2023-03-30T04:51:37.056Z,97438.13
2023-03-30T04:54:03.186Z,97438.94
2023-03-30T04:56:29.311Z,97441.59
2023-03-30T04:58:55.483Z,97438.13
2023-03-30T05:01:21.651Z,97445.31
2023-03-30T05:03:47.940Z,97443.47
2023-03-30T05:06:14.114Z,97443.47
2023-03-30T05:08:41.901Z,97449.59
2023-03-30T05:11:08.349Z,97453.13
2023-03-30T05:13:34.519Z,97451.47
2023-03-30T05:16:00.701Z,97463.53
2023-03-30T05:18:26.975Z,97458.44
2023-03-30T05:20:53.087Z,97463.78
2023-03-30T05:23:19.296Z,97465.41
2023-03-30T05:25:45.430Z,97453.13
2023-03-30T05:28:11.607Z,97456.59
2023-03-30T05:30:37.723Z,97458.44
2023-03-30T05:33:06.940Z,97453.94
2023-03-30T05:35:33.153Z,97449.41
2023-03-30T05:37:59.347Z,97458.22
2023-03-30T05:40:25.468Z,97449.41
2023-03-30T05:42:51.764Z,97453.13
2023-03-30T05:45:17.916Z,97475.28
2023-03-30T05:47:44.066Z,97475.28
2023-03-30T05:50:10.192Z,97479.78
2023-03-30T05:52:36.337Z,97483.28
2023-03-30T05:55:02.512Z,97469.69
2023-03-30T05:57:28.717Z,97475.28
2023-03-30T05:59:54.929Z,97482.22
2023-03-30T06:02:21.103Z,97478.75
2023-03-30T06:04:47.307Z,97494.75
2023-03-30T06:07:13.568Z,97496.63
2023-03-30T06:09:39.702Z,97499.03
2023-03-30T06:12:05.803Z,97475.03
2023-03-30T06:14:31.987Z,97494.53
2023-03-30T06:16:58.707Z,97499.88
2023-03-30T06:19:24.849Z,97502.56
2023-03-30T06:21:51.024Z,97502.56
2023-03-30T06:24:17.223Z,97492.69
2023-03-30T06:26:43.363Z,97490.81
2023-03-30T06:29:09.491Z,97488.16
2023-03-30T06:31:35.661Z,97493.50
2023-03-30T06:34:01.758Z,97479.34
2023-03-30T06:36:44.272Z,97486.31
2023-03-30T06:39:11.967Z,97488.97
2023-03-30T06:41:38.117Z,97482.81
2023-03-30T06:44:04.306Z,97469.47
2023-03-30T06:46:30.490Z,97482.81
2023-03-30T06:48:56.628Z,97474.00
2023-03-30T06:51:22.910Z,97480.97
2023-03-30T06:53:49.145Z,97480.16
2023-03-30T06:56:15.264Z,97479.34
2023-03-30T06:58:41.371Z,97479.13
2023-03-30T07:01:07.559Z,97479.13
2023-03-30T07:03:33.795Z,97479.94
2023-03-30T07:05:59.951Z,97464.94
2023-03-30T07:08:26.104Z,97474.59
2023-03-30T07:10:52.248Z,97472.97
2023-03-30T07:13:18.393Z,97471.94
2023-03-30T07:15:44.555Z,97463.13
2023-03-30T07:18:10.828Z,97463.13
2023-03-30T07:20:37.059Z,97475.41
2023-03-30T07:23:03.193Z,97488.75
2023-03-30T07:25:29.360Z,97472.75
2023-03-30T07:27:55.483Z,97458.59
2023-03-30T07:30:22.532Z,97460.00
2023-03-30T07:32:49.171Z,97463.94
2023-03-30T07:35:15.422Z,97464.75
2023-03-30T07:37:41.551Z,97478.09
2023-03-30T07:40:07.808Z,97490.16
2023-03-30T07:42:33.967Z,97492.22
2023-03-30T07:45:00.184Z,97505.38
2023-03-30T07:47:26.393Z,97499.22
2023-03-30T07:49:52.703Z,97502.69
2023-03-30T07:52:18.889Z,97497.34
2023-03-30T07:54:45.056Z,97492.22
2023-03-30T07:57:11.204Z,97487.50
2023-03-30T07:59:37.383Z,97488.53
2023-03-30T08:02:03.532Z,97492.03
2023-03-30T08:04:29.782Z,97492.03
2023-03-30T08:06:56.024Z,97498.38
2023-03-30T08:09:22.153Z,97503.50
2023-03-30T08:11:48.267Z,97506.19
2023-03-30T08:14:14.483Z,97506.19
2023-03-30T08:16:40.627Z,97518.47
2023-03-30T08:19:06.797Z,97523.00
2023-03-30T08:21:33.012Z,97518.47
2023-03-30T08:23:59.130Z,97526.47
2023-03-30T08:26:25.236Z,97505.13
2023-03-30T08:28:51.455Z,97508.63
2023-03-30T08:31:17.653Z,97505.13
2023-03-30T08:33:43.808Z,97513.13
2023-03-30T08:36:09.976Z,97510.47
2023-03-30T08:38:36.090Z,97507.78
2023-03-30T08:41:02.435Z,97514.78
2023-03-30T08:43:28.791Z,97512.13
2023-03-30T08:45:55.022Z,97522.78
2023-03-30T08:48:21.220Z,97550.28
2023-03-30T08:50:47.349Z,97574.09
2023-03-30T08:53:13.526Z,97580.44
2023-03-30T08:55:39.637Z,97590.91
2023-03-30T08:58:06.986Z,97594.63
2023-03-30T09:00:33.144Z,97579.63
2023-03-30T09:02:59.280Z,97585.78
2023-03-30T09:05:25.598Z,97581.50
2023-03-30T09:07:51.791Z,97574.31
2023-03-30T09:10:17.889Z,97574.31
2023-03-30T09:12:44.104Z,97572.44
2023-03-30T09:15:10.233Z,97583.13
2023-03-30T09:17:36.357Z,97584.97
2023-03-30T09:20:03.037Z,97581.50
2023-03-30T09:22:29.162Z,97584.97
2023-03-30T09:24:55.288Z,97582.31
2023-03-30T09:27:21.463Z,97586.84
2023-03-30T09:29:47.597Z,97579.63
2023-03-30T09:32:13.776Z,97590.31
2023-03-30T09:34:40.169Z,97595.66
2023-03-30T09:37:06.298Z,97584.16
2023-03-30T09:39:33.612Z,97589.50
2023-03-30T09:42:00.036Z,97581.50
2023-03-30T09:44:26.229Z,97579.63
2023-03-30T09:46:52.333Z,97570.59
2023-03-30T09:49:18.460Z,97575.09
2023-03-30T09:51:44.582Z,97572.44
2023-03-30T09:54:10.734Z,97569.78
2023-03-30T09:56:36.879Z,97572.44
2023-03-30T09:59:02.997Z,97570.59
2023-03-30T10:01:29.120Z,97567.94
2023-03-30T10:03:55.490Z,97576.75
2023-03-30T10:06:21.859Z,97577.56
2023-03-30T10:08:47.947Z,97590.09
2023-03-30T10:11:14.081Z,97592.78
2023-03-30T10:13:40.186Z,97592.78
2023-03-30T10:16:06.587Z,97590.09
2023-03-30T10:18:33.093Z,97607.97
2023-03-30T10:20:59.248Z,97614.13
2023-03-30T10:23:25.402Z,97602.63
2023-03-30T10:25:52.108Z,97613.31
2023-03-30T10:28:18.314Z,97633.63
2023-03-30T10:30:44.439Z,97640.00
2023-03-30T10:33:10.749Z,97636.50
2023-03-30T10:35:36.994Z,97633.81
2023-03-30T10:38:03.169Z,97633.81
2023-03-30T10:40:29.361Z,97650.69
2023-03-30T10:42:55.533Z,97648.81
2023-03-30T10:45:21.687Z,97644.50
2023-03-30T10:47:47.966Z,97640.81
2023-03-30T10:50:14.087Z,97638.13
2023-03-30T10:52:51.905Z,97630.13
2023-03-30T10:55:22.486Z,97633.63
2023-03-30T10:57:48.660Z,97630.94
2023-03-30T11:00:14.765Z,97614.94
2023-03-30T11:02:41.014Z,97631.75
2023-03-30T11:05:07.172Z,97618.41
2023-03-30T11:07:33.299Z,97621.06
2023-03-30T11:09:59.459Z,97621.88
2023-03-30T11:12:25.590Z,97631.75
2023-03-30T11:14:51.706Z,97643.25
2023-03-30T11:17:18.045Z,97636.88
2023-03-30T11:19:44.186Z,97642.22
2023-03-30T11:22:10.330Z,97626.41
2023-03-30T11:24:36.474Z,97637.91
2023-03-30T11:27:02.567Z,97637.91
2023-03-30T11:29:28.668Z,97626.41
2023-03-30T11:31:54.828Z,97636.06
2023-03-30T11:34:20.984Z,97625.59
2023-03-30T11:36:47.097Z,97625.41
2023-03-30T11:39:25.015Z,97638.75
2023-03-30T11:41:57.516Z,97621.06
2023-03-30T11:44:23.625Z,97625.41
2023-03-30T11:46:51.648Z,97639.56
2023-03-30T11:49:18.089Z,97622.72
2023-03-30T11:51:44.231Z,97635.03
2023-03-30T11:54:10.331Z,97641.97
2023-03-30T11:56:36.419Z,97637.69
2023-03-30T11:59:02.529Z,97627.81
2023-03-30T12:01:28.693Z,97647.31
2023-03-30T12:03:54.943Z,97632.16
2023-03-30T12:06:21.212Z,97628.63
2023-03-30T12:08:47.350Z,97625.97
2023-03-30T12:11:13.573Z,97648.16
2023-03-30T12:13:50.807Z,97647.31
2023-03-30T12:16:17.803Z,97642.81
2023-03-30T12:18:43.982Z,97642.59
2023-03-30T12:21:10.173Z,97648.97
2023-03-30T12:23:36.291Z,97642.81
2023-03-30T12:26:02.728Z,97642.59
2023-03-30T12:28:39.662Z,97636.22
2023-03-30T12:31:15.158Z,97629.25
2023-03-30T12:33:41.293Z,97633.56
2023-03-30T12:36:07.705Z,97626.56
2023-03-30T12:38:33.995Z,97619.38
2023-03-30T12:41:00.164Z,97620.22
2023-03-30T12:43:26.352Z,97619.16
2023-03-30T12:45:52.623Z,97611.16
2023-03-30T12:48:18.937Z,97611.16
2023-03-30T12:50:45.068Z,97603.16
2023-03-30T12:53:11.255Z,97611.97
2023-03-30T12:55:37.350Z,97608.28
2023-03-30T12:58:03.444Z,97614.44
2023-03-30T13:00:29.563Z,97611.75
2023-03-30T13:02:55.709Z,97616.03
2023-03-30T13:05:21.870Z,97620.56
2023-03-30T13:07:48.051Z,97633.13
2023-03-30T13:10:14.154Z,97638.44
2023-03-30T13:12:40.325Z,97648.06
2023-03-30T13:15:06.486Z,97644.38
2023-03-30T13:17:32.737Z,97632.91
2023-03-30T13:19:58.857Z,97640.91
2023-03-30T13:22:24.982Z,97660.41
2023-03-30T13:24:51.087Z,97667.38
2023-03-30T13:27:17.178Z,97656.69
2023-03-30T13:29:43.396Z,97661.00
2023-03-30T13:32:09.489Z,97639.06
2023-03-30T13:34:35.600Z,97662.03
2023-03-30T13:37:01.748Z,97650.53
2023-03-30T13:39:27.842Z,97644.16
2023-03-30T13:41:54.152Z,97636.16
2023-03-30T13:44:20.312Z,97636.16
2023-03-30T13:46:46.424Z,97639.66
2023-03-30T13:49:12.531Z,97639.41
2023-03-30T13:51:38.639Z,97633.25
2023-03-30T13:54:04.732Z,97638.81
2023-03-30T13:56:30.825Z,97633.25
2023-03-30T13:58:56.954Z,97635.13
2023-03-30T14:01:23.264Z,97626.91
2023-03-30T14:03:49.485Z,97632.47
2023-03-30T14:06:15.752Z,97625.25
2023-03-30T14:08:41.862Z,97623.41
2023-03-30T14:11:07.954Z,97631.41
2023-03-30T14:13:34.264Z,97629.56
2023-03-30T14:16:00.435Z,97626.06
2023-03-30T14:18:26.548Z,97636.75
2023-03-30T14:20:52.738Z,97634.91
2023-03-30T14:23:18.846Z,97629.56
2023-03-30T14:25:44.943Z,97633.88
2023-03-30T14:28:11.134Z,97624.25
2023-03-30T14:30:37.249Z,97633.88
2023-03-30T14:33:03.387Z,97618.91
2023-03-30T14:35:30.090Z,97620.53
2023-03-30T14:37:59.157Z,97631.00
2023-03-30T14:40:33.027Z,97632.00
2023-03-30T14:42:59.113Z,97631.00
2023-03-30T14:45:25.314Z,97625.66
2023-03-30T14:47:51.620Z,97617.63
2023-03-30T14:50:17.820Z,97623.78
2023-03-30T14:52:43.951Z,97622.97
2023-03-30T14:55:14.902Z,97618.44
2023-03-30T14:57:43.618Z,97616.59
2023-03-30T15:00:09.755Z,97619.25
2023-03-30T15:02:35.920Z,97619.25
2023-03-30T15:05:02.031Z,97618.44
2023-03-30T15:07:28.197Z,97627.25
2023-03-30T15:09:54.326Z,97615.53
2023-03-30T15:12:20.481Z,97611.84
2023-03-30T15:14:46.617Z,97620.88
2023-03-30T15:17:12.898Z,97612.06
2023-03-30T15:19:39.072Z,97608.38
2023-03-30T15:22:05.239Z,97611.03
2023-03-30T15:24:32.494Z,97606.50
2023-03-30T15:26:58.663Z,97607.31
2023-03-30T15:29:24.789Z,97616.38
2023-03-30T15:31:50.995Z,97619.06
2023-03-30T15:34:17.353Z,97616.13
2023-03-30T15:36:43.505Z,97613.47
2023-03-30T15:39:09.732Z,97606.31
2023-03-30T15:41:35.832Z,97608.13
2023-03-30T15:44:02.037Z,97597.25
2023-03-30T15:46:28.350Z,97604.44
2023-03-30T15:48:54.562Z,97607.13
2023-03-30T15:51:20.676Z,97608.97
2023-03-30T15:53:47.294Z,97626.41
2023-03-30T15:56:13.422Z,97614.06
2023-03-30T15:58:39.518Z,97616.53
2023-03-30T16:01:05.985Z,97613.06
2023-03-30T16:03:32.376Z,97620.81
2023-03-30T16:05:58.513Z,97619.19
2023-03-30T16:08:24.624Z,97624.53
2023-03-30T16:10:50.765Z,97632.31
2023-03-30T16:13:16.916Z,97622.47
2023-03-30T16:15:43.091Z,97621.63
2023-03-30T16:18:09.258Z,97619.81
2023-03-30T16:20:35.375Z,97632.31
2023-03-30T16:23:01.601Z,97628.63
2023-03-30T16:25:41.812Z,97616.28
2023-03-30T16:28:10.727Z,97615.03
2023-03-30T16:30:36.815Z,97624.09
2023-03-30T16:33:02.954Z,97624.09
2023-03-30T16:35:29.080Z,97623.03
2023-03-30T16:37:55.190Z,97630.25
2023-03-30T16:40:21.277Z,97633.72
2023-03-30T16:42:47.630Z,97630.84
2023-03-30T16:45:13.755Z,97635.38
2023-03-30T16:47:39.912Z,97635.38
2023-03-30T16:50:06.123Z,97647.06
2023-03-30T16:52:32.236Z,97638.84
2023-03-30T16:54:58.322Z,97638.84
2023-03-30T16:57:24.532Z,97643.38
2023-03-30T16:59:50.792Z,97645.25
2023-03-30T17:02:19.453Z,97647.91
2023-03-30T17:04:45.673Z,97646.66
2023-03-30T17:07:11.772Z,97656.53
2023-03-30T17:09:37.862Z,97646.66
2023-03-30T17:12:04.012Z,97643.97
2023-03-30T17:14:30.138Z,97652.81
2023-03-30T17:16:56.407Z,97648.50
2023-03-30T17:19:22.619Z,97641.31
2023-03-30T17:21:48.761Z,97646.66
2023-03-30T17:24:14.897Z,97653.00
2023-03-30T17:26:41.256Z,97643.97
2023-03-30T17:29:07.387Z,97646.66
2023-03-30T17:31:33.668Z,97645.84
2023-03-30T17:34:00.007Z,97649.06
2023-03-30T17:36:26.125Z,97650.94
2023-03-30T17:38:52.268Z,97655.47
2023-03-30T17:41:18.430Z,97647.47
2023-03-30T17:43:44.581Z,97647.47
2023-03-30T17:46:10.756Z,97650.13
2023-03-30T17:48:36.995Z,97649.31
2023-03-30T17:51:03.325Z,97646.41
2023-03-30T17:53:29.585Z,97645.59
2023-03-30T17:55:55.885Z,97652.59
2023-03-30T17:58:22.038Z,97650.72
2023-03-30T18:00:48.166Z,97662.44
2023-03-30T18:03:14.770Z,97654.41
2023-03-30T18:05:40.915Z,97664.28
2023-03-30T18:08:07.039Z,97669.63
2023-03-30T18:10:33.187Z,97663.28
2023-03-30T18:12:59.318Z,97670.44
2023-03-30T18:15:25.500Z,97673.94
2023-03-30T18:17:51.635Z,97675.78
2023-03-30T18:20:17.886Z,97678.25
2023-03-30T18:25:32.633Z,97690.78
2023-03-30T18:27:58.958Z,97691.59
2023-03-30T18:30:25.071Z,97684.41
2023-03-30T18:32:51.219Z,97675.78
2023-03-30T18:35:17.393Z,97670.44
2023-03-30T18:37:43.509Z,97688.13
2023-03-30T18:40:09.661Z,97690.53
2023-03-30T18:42:35.818Z,97689.75
2023-03-30T18:45:01.948Z,97697.75
2023-03-30T18:47:28.131Z,97695.88
2023-03-30T18:49:54.295Z,97696.13
2023-03-30T18:52:20.459Z,97701.22
2023-03-30T18:54:46.575Z,97698.78
2023-03-30T18:57:12.745Z,97694.25
2023-03-30T18:59:41.034Z,97700.41
2023-03-30T19:02:07.329Z,97694.25
2023-03-30T19:04:33.528Z,97697.97
2023-03-30T19:06:59.730Z,97694.25
2023-03-30T19:09:40.262Z,97673.94
2023-03-30T19:12:08.956Z,97672.09
2023-03-30T19:14:35.065Z,97673.13
2023-03-30T19:17:01.222Z,97683.59
2023-03-30T19:19:27.404Z,97688.94
2023-03-30T19:21:53.556Z,97680.91
2023-03-30T19:24:19.699Z,97680.91
2023-03-30T19:26:45.804Z,97672.91
2023-03-30T19:29:11.912Z,97677.44
2023-03-30T19:31:38.151Z,97670.22
2023-03-30T19:34:04.435Z,97671.03
2023-03-30T19:36:30.571Z,97660.59
2023-03-30T19:38:56.676Z,97667.56
2023-03-30T19:41:22.796Z,97664.09
2023-03-30T19:43:48.913Z,97656.06
2023-03-30T19:46:15.040Z,97660.38
2023-03-30T19:48:41.161Z,97664.91
2023-03-30T19:51:07.839Z,97656.88
2023-03-30T19:53:34.218Z,97661.63
2023-03-30T19:56:00.344Z,97656.88
2023-03-30T19:58:26.513Z,97664.09
2023-03-30T20:00:52.718Z,97670.22
2023-03-30T20:03:18.950Z,97673.72
2023-03-30T20:05:45.089Z,97655.25
2023-03-30T20:08:21.241Z,97651.75
2023-03-30T20:10:50.394Z,97654.22
2023-03-30T20:13:16.526Z,97641.06
2023-03-30T20:15:42.627Z,97640.06
2023-03-30T20:18:08.853Z,97621.34
2023-03-30T20:20:35.133Z,97637.59
2023-03-30T20:23:01.293Z,97634.91
2023-03-30T20:25:27.452Z,97638.41
2023-03-30T20:27:53.596Z,97639.25
2023-03-30T20:30:19.745Z,97638.41
2023-03-30T20:32:56.037Z,97630.19
2023-03-30T20:35:30.431Z,97622.38
2023-03-30T20:37:56.624Z,97629.38
2023-03-30T20:40:22.735Z,97626.09
2023-03-30T20:42:48.927Z,97624.84
2023-03-30T20:45:15.068Z,97625.88
2023-03-30T20:47:41.183Z,97618.91
2023-03-30T20:50:07.364Z,97618.91
2023-03-30T20:52:33.526Z,97616.22
2023-03-30T20:54:59.664Z,97619.94
2023-03-30T20:57:25.878Z,97630.38
2023-03-30T20:59:52.112Z,97626.91
2023-03-30T21:02:18.243Z,97619.94
2023-03-30T21:04:44.776Z,97617.28
2023-03-30T21:07:11.169Z,97626.91
2023-03-30T21:09:37.355Z,97620.53
2023-03-30T21:12:03.482Z,97617.03
2023-03-30T21:14:29.770Z,97616.22
2023-03-30T21:16:55.955Z,97617.03
2023-03-30T21:19:22.075Z,97611.69
2023-03-30T21:21:48.199Z,97624.03
2023-03-30T21:24:14.286Z,97611.50
2023-03-30T21:26:40.397Z,97611.69
2023-03-30T21:29:06.545Z,97614.16
2023-03-30T21:31:33.271Z,97602.66
2023-03-30T21:33:59.554Z,97592.78
2023-03-30T21:36:25.892Z,97593.59
2023-03-30T21:38:52.070Z,97600.00
2023-03-30T21:41:18.174Z,97595.47
2023-03-30T21:43:44.370Z,97597.31
2023-03-30T21:46:10.760Z,97586.66
2023-03-30T21:48:36.934Z,97593.84
2023-03-30T21:51:03.051Z,97595.47
2023-03-30T21:53:29.196Z,97593.59
2023-03-30T21:55:55.354Z,97586.66
2023-03-30T21:58:21.475Z,97578.63
2023-03-30T22:00:51.557Z,97567.16
2023-03-30T22:03:24.664Z,97570.63
2023-03-30T22:05:50.844Z,97560.75
2023-03-30T22:08:16.957Z,97559.94
2023-03-30T22:10:44.622Z,97557.28
2023-03-30T22:13:10.746Z,97564.47
2023-03-30T22:15:36.969Z,97560.16
2023-03-30T22:18:03.191Z,97554.59
2023-03-30T22:20:29.390Z,97556.47
2023-03-30T22:22:55.516Z,97550.28
2023-03-30T22:25:21.639Z,97544.94
2023-03-30T22:27:49.002Z,97546.81
2023-03-30T22:30:15.125Z,97532.44
2023-03-30T22:32:41.299Z,97543.09
2023-03-30T22:35:07.453Z,97547.41
2023-03-30T22:37:33.581Z,97538.56
2023-03-30T22:39:59.698Z,97543.91
2023-03-30T22:42:25.830Z,97540.44
2023-03-30T22:44:51.944Z,97543.91
2023-03-30T22:47:18.052Z,97528.09
2023-03-30T22:49:44.212Z,97519.06
2023-03-30T22:52:10.419Z,97520.09
2023-03-30T22:54:36.559Z,97529.75
2023-03-30T22:57:02.703Z,97517.44
2023-03-30T22:59:28.840Z,97525.44
2023-03-30T23:01:55.065Z,97522.78
2023-03-30T23:04:21.170Z,97516.63
2023-03-30T23:06:47.260Z,97520.09
2023-03-30T23:09:13.432Z,97513.94
2023-03-30T23:14:05.796Z,97509.41
2023-03-30T23:16:32.061Z,97508.63
2023-03-30T23:18:58.265Z,97501.41
2023-03-30T23:21:24.404Z,97492.59
2023-03-30T23:23:50.956Z,97492.38
2023-03-30T23:26:17.049Z,97484.56
2023-03-30T23:28:43.180Z,97473.09
2023-03-30T23:31:09.399Z,97467.75
2023-03-30T23:33:35.593Z,97479.25
2023-03-30T23:36:01.740Z,97476.78
2023-03-30T23:38:27.911Z,97469.38
2023-03-30T23:40:54.027Z,97460.34
2023-03-30T23:43:20.131Z,97467.75
2023-03-30T23:45:46.254Z,97472.03
2023-03-30T23:48:12.378Z,97466.69
2023-03-30T23:50:38.498Z,97457.66
2023-03-30T23:53:04.615Z,97466.69
2023-03-30T23:55:30.765Z,97454.41
2023-03-30T23:57:56.894Z,97451.47
